Home   Weather   Japan   Tokyo   Past weeks
Flag for Japan

Past Weather in Tokyo, Japan — August 2019

Currently: 83 °F. Warm. (Weather station: Tokyo, Japan). See more current weather

August 2019 Weather in Tokyo — Graph

°F

High & Low Weather Summary for August 2019

 TemperatureHumidityPressure
High96 °F (Aug 8, 1:00 pm)100% (Aug 20, 8:00 am)29.98 "Hg (Aug 20, 8:00 am)
Low70 °F (Aug 25, 6:00 am)45% (Aug 11, 12:00 pm)29.41 "Hg (Aug 16, 12:00 pm)
Average83 °F81%29.78 "Hg
* Reported Aug 1 12:00 am — Aug 31 11:00 pm, Tokyo. Weather by CustomWeather, © 2022

Note: Actual official high and low records may vary slightly from our data, if they occured in-between our weather recording intervals... More about our weather records

Tokyo Weather History for August 1, 2019

Scroll right to see more
 ConditionsComfort  
Time TempWeatherWind HumidityBarometerVisibility
12:00 am
Thu, Aug 1
81 °FWarm.3 mph96%29.87 "HgN/A
1:00 am80 °FWarm.5 mph98%29.86 "HgN/A
2:00 am80 °FWarm.3 mph98%29.86 "HgN/A
3:00 am80 °FPassing clouds.2 mph99%29.86 "Hg12 mi
4:00 am80 °FWarm.3 mph97%29.87 "HgN/A
6:00 am82 °FSunny.2 mph95%29.88 "Hg9 mi
7:00 am85 °FWarm.3 mph85%29.90 "HgN/A
8:00 am87 °FWarm.5 mph87%29.90 "HgN/A
9:00 am91 °FPassing clouds.6 mph75%29.90 "Hg6 mi
10:00 am92 °FHot.5 mph62%29.89 "HgN/A
11:00 am90 °FHot.5 mph72%29.88 "HgN/A
12:00 pm92 °FScattered clouds.8 mph71%29.87 "Hg6 mi
1:00 pm93 °FExtremely hot.10 mph69%29.85 "HgN/A
2:00 pm94 °FExtremely hot.8 mph67%29.84 "HgN/A
3:00 pm94 °FPassing clouds.9 mph63%29.83 "Hg6 mi
4:00 pm93 °FExtremely hot.8 mph64%29.82 "HgN/A
5:00 pm91 °FHot.6 mph70%29.82 "HgN/A
6:00 pm90 °FPassing clouds.6 mph71%29.83 "Hg6 mi
7:00 pm88 °FHot.7 mph72%29.85 "HgN/A
8:00 pm86 °FWarm.6 mph76%29.85 "HgN/A
9:00 pm85 °FPassing clouds.5 mph79%29.87 "Hg9 mi
10:00 pm84 °FWarm.7 mph83%29.87 "HgN/A
11:00 pm83 °FWarm.7 mph85%29.86 "HgN/A
Weather by CustomWeather, © 2022

See weather overview